Time;durP1;ratioP1;P1;durP2;ratioP2;P2;SDS_P1;SDS_P2;PMS_P1;PMS_P2;Temp;Humidity;BMP_temperature;BMP_pressure;BME280_temperature;BME280_humidity;BME280_pressure;Samples;Min_cycle;Max_cycle;Signal;HPM_P1;HPM_P2
2022/10/04 07:56:46;;;;;;;;;10.00;10.00;;;;;;;;5186267;27;14067;-74
2022/10/04 07:59:23;;;;;;;;;10.75;10.75;;;;;;;;5190916;27;22938;-75
2022/10/04 08:02:02;;;;;;;;;13.00;10.75;;;;;;;;5188160;27;11485;-75
2022/10/04 08:04:34;;;;;;;;;14.25;11.50;;;;;;;;5188589;27;11159;-75
2022/10/04 08:07:00;;;;;;;;;13.50;8.50;;;;;;;;5170208;27;13774;-75
2022/10/04 08:09:26;;;;;;;;;13.00;12.75;;;;;;;;5180705;27;21947;-73
2022/10/04 08:12:09;;;;;;;;;13.25;10.25;;;;;;;;5174887;27;22232;-74
2022/10/04 08:14:38;;;;;;;;;11.50;10.50;;;;;;;;5156732;27;10597;-72
2022/10/04 08:17:36;;;;;;;;;10.50;10.50;;;;;;;;5177284;27;11646;-71
2022/10/04 08:20:09;;;;;;;;;12.00;11.33;;;;;;;;5112035;27;9491;-73
2022/10/04 08:22:50;;;;;;;;;10.67;10.00;;;;;;;;5177808;27;13981;-73
2022/10/04 08:25:27;;;;;;;;;12.00;11.00;;;;;;;;5197694;27;12072;-74
2022/10/04 08:31:08;;;;;;;;;11.00;10.75;;;;;;;;5197986;27;10518;-74
2022/10/04 08:33:52;;;;;;;;;12.25;11.50;;;;;;;;5198230;27;11878;-74
2022/10/04 08:36:27;;;;;;;;;10.00;10.00;;;;;;;;5197912;27;11704;-73
2022/10/04 08:38:53;;;;;;;;;6.75;6.75;;;;;;;;5198540;27;11720;-73
2022/10/04 08:41:32;;;;;;;;;11.00;10.67;;;;;;;;5197339;27;22926;-74
2022/10/04 08:44:09;;;;;;;;;10.25;9.50;;;;;;;;5197577;27;23989;-74
2022/10/04 08:46:54;;;;;;;;;8.00;8.00;;;;;;;;5197039;27;22637;-74
2022/10/04 08:49:45;;;;;;;;;8.50;8.50;;;;;;;;5197619;27;21554;-74
2022/10/04 08:52:22;;;;;;;;;9.00;9.00;;;;;;;;5178717;27;10709;-74
2022/10/04 08:55:06;;;;;;;;;12.00;9.50;;;;;;;;5178304;27;13231;-74
2022/10/04 08:57:50;;;;;;;;;8.20;7.80;;;;;;;;5197473;27;21649;-75
2022/10/04 09:00:16;;;;;;;;;8.40;8.40;;;;;;;;5197117;27;21605;-74
2022/10/04 09:03:05;;;;;;;;;12.50;9.25;;;;;;;;5198214;27;10553;-75
2022/10/04 09:05:50;;;;;;;;;10.00;10.00;;;;;;;;5196955;27;21991;-74
2022/10/04 09:08:22;;;;;;;;;12.80;11.00;;;;;;;;5183037;27;21496;-73
2022/10/04 09:11:03;;;;;;;;;8.40;8.40;;;;;;;;5164567;27;12299;-75
2022/10/04 09:13:32;;;;;;;;;14.20;12.00;;;;;;;;5164242;27;25550;-73
2022/10/04 09:16:19;;;;;;;;;14.20;14.20;;;;;;;;5183367;27;22371;-72
2022/10/04 09:18:51;;;;;;;;;8.40;8.40;;;;;;;;5183889;27;8987;-74
2022/10/04 09:21:36;;;;;;;;;6.00;6.00;;;;;;;;5163855;27;23133;-71
2022/10/04 09:24:19;;;;;;;;;8.40;8.40;;;;;;;;5183101;27;11718;-76
2022/10/04 09:26:54;;;;;;;;;9.40;8.20;;;;;;;;5180583;27;11855;-79
2022/10/04 09:29:20;;;;;;;;;8.00;7.00;;;;;;;;5183705;27;11721;-77
2022/10/04 09:31:52;;;;;;;;;8.50;7.50;;;;;;;;5183338;27;12520;-79
2022/10/04 09:34:41;;;;;;;;;8.40;7.00;;;;;;;;5180588;27;8971;-74
2022/10/04 09:37:38;;;;;;;;;7.00;7.00;;;;;;;;5176359;27;8809;-73
2022/10/04 09:40:24;;;;;;;;;8.20;8.00;;;;;;;;5117877;27;9467;-72
2022/10/04 09:42:53;;;;;;;;;7.00;6.80;;;;;;;;5182613;27;11934;-73
2022/10/04 09:45:38;;;;;;;;;9.00;7.60;;;;;;;;5176574;27;11417;-73
2022/10/04 09:48:18;;;;;;;;;9.00;9.00;;;;;;;;5167080;27;12579;-74
2022/10/04 09:51:07;;;;;;;;;27.40;25.80;;;;;;;;5161670;27;8877;-73
2022/10/04 09:53:45;;;;;;;;;12.40;10.80;;;;;;;;5161571;27;23112;-74
2022/10/04 09:56:29;;;;;;;;;5.40;4.80;;;;;;;;5174393;27;10716;-75
2022/10/04 09:58:54;;;;;;;;;14.80;13.80;;;;;;;;5172652;27;22276;-74
2022/10/04 10:01:29;;;;;;;;;17.50;17.50;;;;;;;;5181005;27;22423;-74
2022/10/04 10:04:23;;;;;;;;;21.40;21.40;;;;;;;;5175725;27;11445;-72
2022/10/04 10:07:03;;;;;;;;;6.20;6.00;;;;;;;;5167074;27;13666;-73
2022/10/04 10:15:16;;;;;;;;;5.20;5.20;;;;;;;;5166452;27;11647;-71
2022/10/04 10:17:53;;;;;;;;;4.60;4.20;;;;;;;;5144150;27;14110;-71
2022/10/04 10:20:27;;;;;;;;;7.60;6.00;;;;;;;;5161129;27;10711;-73
2022/10/04 10:22:56;;;;;;;;;4.00;4.00;;;;;;;;5175421;27;12040;-70
2022/10/04 10:25:21;;;;;;;;;4.00;4.00;;;;;;;;5162659;27;11052;-70
2022/10/04 10:28:05;;;;;;;;;6.75;6.75;;;;;;;;5178904;27;8793;-71
2022/10/04 10:30:33;;;;;;;;;4.00;4.00;;;;;;;;5181918;27;11866;-73
2022/10/04 10:33:19;;;;;;;;;4.40;3.00;;;;;;;;5181949;27;12917;-70
2022/10/04 10:36:02;;;;;;;;;4.40;4.40;;;;;;;;5181391;27;10222;-73
2022/10/04 10:38:39;;;;;;;;;4.40;4.40;;;;;;;;5181858;27;9251;-74
2022/10/04 10:41:04;;;;;;;;;5.80;5.00;;;;;;;;5162858;27;8824;-73
2022/10/04 10:43:48;;;;;;;;;5.50;4.00;;;;;;;;5181906;27;12076;-74
2022/10/04 10:46:22;;;;;;;;;4.40;4.00;;;;;;;;5181849;27;10194;-78
2022/10/04 10:48:50;;;;;;;;;5.80;3.00;;;;;;;;5162832;27;11560;-69
2022/10/04 10:51:21;;;;;;;;;2.00;2.00;;;;;;;;5181210;27;11171;-68
2022/10/04 10:54:05;;;;;;;;;5.40;3.80;;;;;;;;5181113;27;10817;-69
2022/10/04 10:56:31;;;;;;;;;6.40;4.40;;;;;;;;5181083;27;11844;-74
2022/10/04 10:59:15;;;;;;;;;5.50;5.50;;;;;;;;5177963;27;12311;-73
2022/10/04 11:02:03;;;;;;;;;2.40;2.40;;;;;;;;5174239;27;12184;-73
2022/10/04 11:04:58;;;;;;;;;5.25;5.25;;;;;;;;5171529;27;11940;-69
2022/10/04 11:07:41;;;;;;;;;4.75;4.00;;;;;;;;5104569;27;11942;-68
2022/10/04 11:10:21;;;;;;;;;3.00;3.00;;;;;;;;5163276;27;11612;-71
2022/10/04 11:12:56;;;;;;;;;4.50;4.50;;;;;;;;5160511;27;10529;-71
2022/10/04 11:15:30;;;;;;;;;3.00;3.00;;;;;;;;5165322;27;11936;-72
2022/10/04 11:17:55;;;;;;;;;2.50;2.50;;;;;;;;5181499;27;12151;-71
2022/10/04 11:20:33;;;;;;;;;3.00;3.00;;;;;;;;5180169;27;11512;-69
2022/10/04 11:23:29;;;;;;;;;3.00;2.00;;;;;;;;5181602;27;11877;-73
2022/10/04 11:26:23;;;;;;;;;2.75;2.75;;;;;;;;5181647;27;8812;-70
2022/10/04 11:28:55;;;;;;;;;3.00;3.00;;;;;;;;5181064;27;12749;-71
2022/10/04 11:31:39;;;;;;;;;3.00;2.00;;;;;;;;5180246;27;11692;-71
2022/10/04 11:34:12;;;;;;;;;3.50;2.25;;;;;;;;5181240;27;8897;-71
2022/10/04 11:37:10;;;;;;;;;1.75;1.75;;;;;;;;5161915;27;10057;-71
2022/10/04 11:39:38;;;;;;;;;5.00;2.25;;;;;;;;5133918;27;10717;-70
2022/10/04 11:42:03;;;;;;;;;3.25;2.25;;;;;;;;5180851;27;10520;-72
2022/10/04 11:44:32;;;;;;;;;2.33;2.33;;;;;;;;5161762;27;9286;-73
2022/10/04 11:47:07;;;;;;;;;2.50;2.00;;;;;;;;5180578;27;9729;-72
2022/10/04 11:49:55;;;;;;;;;2.00;1.75;;;;;;;;5161417;27;11174;-71
2022/10/04 11:52:43;;;;;;;;;2.00;2.00;;;;;;;;5180631;27;10513;-71
2022/10/04 11:55:30;;;;;;;;;2.50;2.50;;;;;;;;5180769;27;8998;-71
2022/10/04 11:57:58;;;;;;;;;3.00;3.00;;;;;;;;5161397;27;11878;-72
2022/10/04 12:00:25;;;;;;;;;2.25;2.25;;;;;;;;5151973;27;13832;-72
2022/10/04 12:02:50;;;;;;;;;9.00;9.00;;;;;;;;5159572;27;11579;-72
2022/10/04 12:05:28;;;;;;;;;7.00;6.00;;;;;;;;5159211;27;12575;-69
2022/10/04 12:07:56;;;;;;;;;5.00;4.00;;;;;;;;5171525;27;8821;-70
2022/10/04 12:10:24;;;;;;;;;3.25;3.00;;;;;;;;5180376;27;9897;-71
2022/10/04 12:12:49;;;;;;;;;3.00;2.00;;;;;;;;5180335;27;10542;-72
2022/10/04 12:15:14;;;;;;;;;3.00;3.00;;;;;;;;5180232;27;9582;-73
2022/10/04 12:17:51;;;;;;;;;1.00;1.00;;;;;;;;5180763;27;8935;-70
2022/10/04 12:20:28;;;;;;;;;3.00;2.50;;;;;;;;5180077;27;8762;-71
2022/10/04 12:23:04;;;;;;;;;2.25;2.25;;;;;;;;5179901;27;11648;-70
2022/10/04 12:25:45;;;;;;;;;2.00;2.00;;;;;;;;5180113;27;11649;-70
2022/10/04 12:28:25;;;;;;;;;8.75;7.00;;;;;;;;5180089;27;9800;-70
2022/10/04 12:31:02;;;;;;;;;3.25;3.00;;;;;;;;5180028;27;11125;-70
2022/10/04 12:33:30;;;;;;;;;5.50;4.00;;;;;;;;5179946;27;9877;-69
2022/10/04 12:36:11;;;;;;;;;3.00;3.00;;;;;;;;5179489;27;11852;-70
2022/10/04 12:38:36;;;;;;;;;4.00;3.00;;;;;;;;5179831;27;10967;-69
2022/10/04 12:41:14;;;;;;;;;2.67;2.67;;;;;;;;5179658;27;8792;-69
2022/10/04 12:43:39;;;;;;;;;5.50;5.50;;;;;;;;5183432;27;11589;-77
2022/10/04 12:46:23;;;;;;;;;6.00;4.00;;;;;;;;5164043;27;12985;-68
2022/10/04 12:48:54;;;;;;;;;7.00;6.50;;;;;;;;5183420;27;11584;-69
2022/10/04 12:51:32;;;;;;;;;8.75;6.75;;;;;;;;5182984;27;11820;-68
2022/10/04 12:54:06;;;;;;;;;4.50;3.75;;;;;;;;5183071;27;11631;-68
2022/10/04 12:56:37;;;;;;;;;6.00;6.00;;;;;;;;5183082;27;10596;-69
2022/10/04 12:59:15;;;;;;;;;4.75;3.25;;;;;;;;5183064;27;11757;-68
2022/10/04 13:01:52;;;;;;;;;6.75;6.00;;;;;;;;5163732;27;12319;-68
2022/10/04 13:04:24;;;;;;;;;3.25;3.00;;;;;;;;5182850;27;11599;-68
2022/10/04 13:07:08;;;;;;;;;3.75;3.25;;;;;;;;5182915;27;9715;-68
2022/10/04 13:09:43;;;;;;;;;4.75;4.75;;;;;;;;5182947;27;8788;-69
2022/10/04 13:12:41;;;;;;;;;4.00;4.00;;;;;;;;5182751;27;11087;-68
2022/10/04 13:15:24;;;;;;;;;2.25;2.00;;;;;;;;5135441;27;8862;-69
2022/10/04 13:17:59;;;;;;;;;8.00;6.75;;;;;;;;5164300;27;10733;-69
2022/10/04 13:20:34;;;;;;;;;3.25;3.00;;;;;;;;5183181;27;12762;-69
2022/10/04 13:23:03;;;;;;;;;3.00;3.00;;;;;;;;5183039;27;12111;-69
2022/10/04 13:25:28;;;;;;;;;2.00;2.00;;;;;;;;5163362;27;8797;-68
2022/10/04 13:28:19;;;;;;;;;1.33;1.00;;;;;;;;5183243;27;8794;-72
2022/10/04 13:30:51;;;;;;;;;2.00;2.00;;;;;;;;5163634;27;12546;-71
2022/10/04 13:33:25;;;;;;;;;2.00;2.00;;;;;;;;5182150;27;11662;-69
2022/10/04 13:36:02;;;;;;;;;1.25;1.00;;;;;;;;5183012;27;8796;-69
2022/10/04 13:38:48;;;;;;;;;3.25;2.75;;;;;;;;5163501;27;11041;-68
2022/10/04 13:41:25;;;;;;;;;1.75;1.75;;;;;;;;5181085;27;12038;-69
2022/10/04 13:43:56;;;;;;;;;2.50;1.75;;;;;;;;5182616;27;10968;-69
2022/10/04 13:46:22;;;;;;;;;2.75;2.75;;;;;;;;5182547;27;8881;-69
2022/10/04 13:49:06;;;;;;;;;3.33;2.00;;;;;;;;5162908;27;12425;-69
2022/10/04 13:57:42;;;;;;;;;1.00;1.00;;;;;;;;5097049;28;10327;-69
2022/10/04 14:00:13;;;;;;;;;1.00;1.00;;;;;;;;5097165;28;8798;-70
2022/10/04 14:02:51;;;;;;;;;3.00;3.00;;;;;;;;5096917;28;8800;-69
2022/10/04 14:05:36;;;;;;;;;1.00;1.00;;;;;;;;5096442;28;8802;-70
2022/10/04 14:08:07;;;;;;;;;1.25;1.00;;;;;;;;5097281;28;8829;-70
2022/10/04 14:10:46;;;;;;;;;1.00;1.00;;;;;;;;5097148;28;8778;-69
2022/10/04 14:13:17;;;;;;;;;2.00;2.00;;;;;;;;5097332;28;8858;-70
2022/10/04 14:15:54;;;;;;;;;2.00;0.50;;;;;;;;5080027;28;11397;-70
2022/10/04 14:18:24;;;;;;;;;1.00;1.00;;;;;;;;5097113;28;9049;-70
2022/10/04 14:21:12;;;;;;;;;1.00;1.00;;;;;;;;5096666;28;11640;-69
2022/10/04 14:23:37;;;;;;;;;3.00;2.25;;;;;;;;5096705;28;8747;-69
2022/10/04 14:26:11;;;;;;;;;3.00;3.00;;;;;;;;5096112;28;11320;-68
2022/10/04 14:28:49;;;;;;;;;5.00;3.00;;;;;;;;5096788;28;8959;-69
2022/10/04 14:31:20;;;;;;;;;3.00;3.00;;;;;;;;5159663;27;8796;-72
2022/10/04 14:33:48;;;;;;;;;2.00;2.00;;;;;;;;5161467;27;8776;-77
2022/10/04 14:36:32;;;;;;;;;4.00;2.75;;;;;;;;5161690;27;8804;-74
2022/10/04 14:39:01;;;;;;;;;6.25;4.25;;;;;;;;5180056;27;11575;-79
2022/10/04 14:41:29;;;;;;;;;4.00;4.00;;;;;;;;5175455;27;10358;-77
2022/10/04 14:44:01;;;;;;;;;4.00;3.50;;;;;;;;5161229;27;11690;-76
2022/10/04 14:46:29;;;;;;;;;3.75;2.75;;;;;;;;5159500;27;8874;-80
2022/10/04 14:48:57;;;;;;;;;4.00;4.00;;;;;;;;5157834;27;11676;-76
2022/10/04 14:51:31;;;;;;;;;3.25;2.00;;;;;;;;5158387;27;11886;-76
2022/10/04 14:54:02;;;;;;;;;3.00;3.00;;;;;;;;5140144;27;10567;-76
2022/10/04 14:56:27;;;;;;;;;3.00;3.00;;;;;;;;5158655;27;9763;-76
2022/10/04 14:58:53;;;;;;;;;4.00;4.00;;;;;;;;5169770;27;9516;-76
2022/10/04 15:01:20;;;;;;;;;5.00;3.00;;;;;;;;5179805;27;8836;-76
2022/10/04 15:04:05;;;;;;;;;3.50;3.50;;;;;;;;5180625;27;8785;-75
2022/10/04 15:06:35;;;;;;;;;3.50;3.50;;;;;;;;5181881;27;12026;-77
2022/10/04 15:09:16;;;;;;;;;4.25;4.00;;;;;;;;5182145;27;8823;-76
2022/10/04 15:11:41;;;;;;;;;3.50;3.50;;;;;;;;5162513;27;11926;-75
2022/10/04 15:14:24;;;;;;;;;6.00;5.00;;;;;;;;5181719;27;11700;-75
2022/10/04 15:16:54;;;;;;;;;4.00;4.00;;;;;;;;5181959;27;13236;-75
2022/10/04 15:19:19;;;;;;;;;4.50;3.25;;;;;;;;5181449;27;8790;-77
2022/10/04 15:21:44;;;;;;;;;3.67;3.00;;;;;;;;5181311;27;10488;-75
2022/10/04 15:24:16;;;;;;;;;5.33;5.00;;;;;;;;5162336;27;11945;-77
2022/10/04 15:27:00;;;;;;;;;4.00;4.00;;;;;;;;5181519;27;10347;-75
2022/10/04 15:29:28;;;;;;;;;3.00;3.00;;;;;;;;5181374;27;10604;-75
2022/10/04 15:32:03;;;;;;;;;4.00;3.00;;;;;;;;5180935;27;8781;-76
2022/10/04 15:34:42;;;;;;;;;4.75;3.00;;;;;;;;5181875;27;8750;-75
2022/10/04 15:37:24;;;;;;;;;2.50;2.50;;;;;;;;5181039;27;8792;-75
2022/10/04 15:40:08;;;;;;;;;6.75;6.00;;;;;;;;5181263;27;11519;-76
2022/10/04 15:42:39;;;;;;;;;5.50;5.50;;;;;;;;5181110;27;11426;-75
2022/10/04 15:45:16;;;;;;;;;5.25;4.75;;;;;;;;5181078;27;11439;-75
2022/10/04 15:47:59;;;;;;;;;6.00;3.75;;;;;;;;5180706;27;10820;-75
2022/10/04 15:50:29;;;;;;;;;5.25;5.00;;;;;;;;5181231;27;10342;-75
2022/10/04 15:53:07;;;;;;;;;4.33;3.00;;;;;;;;5180508;27;11829;-75
2022/10/04 15:55:35;;;;;;;;;3.75;3.25;;;;;;;;5180087;27;9183;-76
2022/10/04 15:58:20;;;;;;;;;3.00;3.00;;;;;;;;5181035;27;11379;-76
2022/10/04 16:01:04;;;;;;;;;3.75;2.75;;;;;;;;5181146;27;8793;-75
2022/10/04 16:03:29;;;;;;;;;2.00;2.00;;;;;;;;5162043;27;12845;-76
2022/10/04 16:06:08;;;;;;;;;4.00;3.00;;;;;;;;5180992;27;11336;-76
2022/10/04 16:08:45;;;;;;;;;4.00;4.00;;;;;;;;5180435;27;8810;-76
2022/10/04 16:11:14;;;;;;;;;4.00;3.00;;;;;;;;5180666;27;8770;-75
2022/10/04 16:13:39;;;;;;;;;5.00;4.33;;;;;;;;5180337;27;8894;-77
2022/10/04 16:16:31;;;;;;;;;3.67;3.00;;;;;;;;5180955;27;13179;-77
2022/10/04 16:18:56;;;;;;;;;4.33;4.33;;;;;;;;5150633;27;11387;-76
2022/10/04 16:21:27;;;;;;;;;5.00;5.00;;;;;;;;5184398;27;11290;-76
2022/10/04 16:24:11;;;;;;;;;7.00;6.33;;;;;;;;5183865;27;11437;-76
2022/10/04 16:26:42;;;;;;;;;5.00;3.33;;;;;;;;5183945;27;11363;-76
2022/10/04 16:29:29;;;;;;;;;6.00;6.00;;;;;;;;5184193;27;9562;-76
2022/10/04 16:31:57;;;;;;;;;8.00;5.33;;;;;;;;5164608;27;11930;-76
2022/10/04 16:34:26;;;;;;;;;4.00;4.00;;;;;;;;5168388;27;11580;-76
